createdAt,value
2019-06-20T00:02:51.909Z,961.2
2019-06-20T00:13:01.302Z,961.8
2019-06-20T00:23:04.755Z,962.6
2019-06-20T00:33:08.237Z,962.2
2019-06-20T00:43:18.735Z,962.2
2019-06-20T00:53:22.177Z,963.3
2019-06-20T01:03:25.636Z,963.8
2019-06-20T01:13:34.807Z,963.4
2019-06-20T01:23:38.239Z,963.9
2019-06-20T01:33:41.656Z,963.8
2019-06-20T01:43:51.508Z,963.7
2019-06-20T01:53:54.970Z,963.7
2019-06-20T02:03:58.439Z,963.6
2019-06-20T02:14:08.053Z,963.9
2019-06-20T02:24:11.560Z,964
2019-06-20T02:34:15.036Z,964.3
2019-06-20T02:44:31.391Z,964.2
2019-06-20T02:54:34.840Z,964.2
2019-06-20T03:04:38.288Z,957.2
2019-06-20T03:14:46.244Z,957.2
2019-06-20T03:24:49.705Z,957.2
2019-06-20T03:34:53.144Z,957.4
2019-06-20T03:45:03.025Z,957.7
2019-06-20T03:55:06.501Z,957.9
2019-06-20T04:05:09.972Z,957.9
2019-06-20T04:15:20.045Z,957.6
2019-06-20T04:25:23.679Z,957.8
2019-06-20T04:35:27.113Z,963.3
2019-06-20T04:45:36.111Z,964.7
2019-06-20T04:55:39.701Z,962.3
2019-06-20T05:05:43.179Z,963.6
2019-06-20T05:15:53.774Z,964.7
2019-06-20T05:25:57.230Z,964.5
2019-06-20T05:36:00.707Z,964.3
2019-06-20T05:46:11.606Z,964.4
2019-06-20T05:56:15.065Z,964.7
2019-06-20T06:06:18.522Z,964.9
2019-06-20T06:16:28.697Z,964.6
2019-06-20T06:26:32.170Z,964.9
2019-06-20T06:36:35.613Z,965.1
2019-06-20T06:46:59.966Z,965.2
2019-06-20T06:57:03.583Z,965.2
2019-06-20T07:07:07.078Z,965.1
2019-06-20T07:17:10.578Z,965.3
2019-06-20T07:27:14.048Z,965.1
2019-06-20T07:37:17.536Z,965.1
2019-06-20T07:47:21.027Z,964.7
2019-06-20T07:57:24.451Z,965.2
2019-06-20T08:07:27.928Z,965.1
2019-06-20T08:17:36.174Z,965.4
2019-06-20T08:27:39.636Z,965.2
2019-06-20T08:37:43.111Z,965.7
2019-06-20T08:47:46.639Z,965.7
2019-06-20T08:57:50.115Z,965.3
2019-06-20T09:18:04.954Z,965.4
2019-06-20T09:28:08.386Z,965.6
2019-06-20T09:38:11.810Z,965.8
2019-06-20T09:48:15.259Z,965.9
2019-06-20T09:58:18.780Z,958.7
2019-06-20T10:08:22.247Z,965.6
2019-06-20T10:18:25.722Z,965.3
2019-06-20T10:28:29.207Z,965.1
2019-06-20T10:38:32.650Z,965.1
2019-06-20T10:48:36.076Z,964.9
2019-06-20T10:58:44.737Z,965.1
2019-06-20T11:08:49.679Z,964.9
2019-06-20T11:18:53.128Z,965.2
2019-06-20T11:28:56.584Z,965.5
2019-06-20T11:39:00.163Z,965.7
2019-06-20T11:49:03.594Z,965.7
2019-06-20T11:59:07.021Z,965.3
2019-06-20T12:09:10.445Z,965.2
2019-06-20T12:19:13.948Z,965
2019-06-20T12:29:17.369Z,964.7
2019-06-20T12:39:20.824Z,965
2019-06-20T12:49:24.390Z,964.7
2019-06-20T12:59:27.847Z,963.6
2019-06-20T13:09:31.345Z,963.3
2019-06-20T13:19:34.806Z,962.1
2019-06-20T13:29:40.974Z,961.8
2019-06-20T13:39:47.364Z,961.7
2019-06-20T13:49:50.845Z,961.6
2019-06-20T13:59:54.857Z,961.3
2019-06-20T14:09:58.330Z,961
2019-06-20T14:20:02.449Z,960.9
2019-06-20T14:30:05.946Z,960.5
2019-06-20T14:40:09.421Z,960.6
2019-06-20T14:50:12.911Z,960.5
2019-06-20T15:00:16.364Z,961
2019-06-20T15:10:20.062Z,961.1
2019-06-20T15:20:23.506Z,961.4
2019-06-20T15:30:27.022Z,961.4
2019-06-20T15:40:30.539Z,961.3
2019-06-20T15:50:34.002Z,961.7
2019-06-20T16:00:37.509Z,962.1
2019-06-20T16:10:40.989Z,962.3
2019-06-20T16:20:44.516Z,962.6
2019-06-20T16:30:47.979Z,963.4
2019-06-20T16:40:51.433Z,963.6
2019-06-20T16:50:54.909Z,963.3
2019-06-20T17:00:58.426Z,963
2019-06-20T17:11:01.909Z,963.2
2019-06-20T17:21:05.469Z,963.4
2019-06-20T17:31:08.950Z,963.7
2019-06-20T17:41:12.403Z,964.2
2019-06-20T17:51:15.905Z,964.4
2019-06-20T18:01:19.333Z,964.7
2019-06-20T18:11:22.872Z,964.9
2019-06-20T18:21:26.337Z,964.6
2019-06-20T18:31:29.828Z,965
2019-06-20T18:41:33.375Z,965.5
2019-06-20T18:51:36.936Z,965.8
2019-06-20T19:01:40.361Z,966
2019-06-20T19:11:43.831Z,959.1
2019-06-20T19:21:47.300Z,966.4
2019-06-20T19:31:50.720Z,959.4
2019-06-20T19:41:54.183Z,959.4
2019-06-20T19:51:57.662Z,960.1
2019-06-20T20:02:01.112Z,960.3
2019-06-20T20:12:04.579Z,960.1
2019-06-20T20:22:08.025Z,960.3
2019-06-20T20:32:11.539Z,960.1
2019-06-20T20:42:18.235Z,960.4
2019-06-20T20:52:21.725Z,960.2
2019-06-20T21:02:25.175Z,960.4
2019-06-20T21:12:28.673Z,960.7
2019-06-20T21:22:32.107Z,960.6
2019-06-20T21:32:35.573Z,960.6
2019-06-20T21:42:39.015Z,961.1
2019-06-20T21:52:42.447Z,961.4
2019-06-20T22:02:45.895Z,961.5
2019-06-20T22:12:49.341Z,961.7
2019-06-20T22:22:52.817Z,961.6
2019-06-20T22:32:56.275Z,961.5
2019-06-20T22:42:59.762Z,961.8
2019-06-20T22:53:03.261Z,961.7
2019-06-20T23:03:06.895Z,961.5
2019-06-20T23:13:10.336Z,961.7
2019-06-20T23:23:13.803Z,961.8
2019-06-20T23:33:17.307Z,962.3
2019-06-20T23:43:20.742Z,962.3
2019-06-20T23:53:24.239Z,962.4
